createdAt,value
2023-04-07T00:01:55.364Z,10.30
2023-04-07T00:04:22.436Z,9.88
2023-04-07T00:06:49.490Z,10.63
2023-04-07T00:09:16.452Z,10.45
2023-04-07T00:11:43.378Z,11.38
2023-04-07T00:14:10.360Z,11.20
2023-04-07T00:16:37.265Z,10.68
2023-04-07T00:19:04.147Z,11.30
2023-04-07T00:21:31.231Z,12.23
2023-04-07T00:23:59.216Z,12.57
2023-04-07T00:26:31.408Z,10.82
2023-04-07T00:28:59.613Z,12.95
2023-04-07T00:31:26.883Z,11.57
2023-04-07T00:33:54.291Z,12.98
2023-04-07T00:36:21.735Z,13.23
2023-04-07T00:38:48.627Z,11.93
2023-04-07T00:41:15.856Z,12.40
2023-04-07T00:43:42.775Z,13.60
2023-04-07T00:46:09.761Z,14.02
2023-04-07T00:48:37.958Z,13.07
2023-04-07T00:51:07.608Z,13.48
2023-04-07T00:53:34.724Z,14.43
2023-04-07T00:56:01.893Z,14.57
2023-04-07T00:58:28.830Z,14.00
2023-04-07T01:01:12.087Z,14.18
2023-04-07T01:04:02.394Z,13.65
2023-04-07T01:06:35.457Z,15.23
2023-04-07T01:09:24.525Z,14.43
2023-04-07T01:12:22.192Z,14.02
2023-04-07T01:14:58.611Z,13.85
2023-04-07T01:17:28.242Z,14.05
2023-04-07T01:20:08.011Z,15.43
2023-04-07T01:22:47.645Z,15.18
2023-04-07T01:26:10.669Z,15.90
2023-04-07T01:29:26.877Z,16.05
2023-04-07T01:31:59.912Z,16.35
2023-04-07T01:34:29.948Z,15.75
2023-04-07T01:36:59.221Z,15.20
2023-04-07T01:39:28.429Z,15.93
2023-04-07T01:41:57.913Z,16.80
2023-04-07T01:44:27.063Z,17.35
2023-04-07T01:46:56.567Z,17.48
2023-04-07T01:49:25.902Z,16.90
2023-04-07T01:51:54.700Z,17.08
2023-04-07T01:54:23.051Z,17.75
2023-04-07T01:56:49.981Z,17.67
2023-04-07T01:59:17.175Z,16.48
2023-04-07T02:01:44.274Z,15.73
2023-04-07T02:04:51.551Z,16.40
2023-04-07T02:07:40.375Z,16.77
2023-04-07T02:10:13.456Z,17.75
2023-04-07T02:12:44.159Z,16.30
2023-04-07T02:15:12.792Z,17.40
2023-04-07T02:17:44.771Z,18.08
2023-04-07T02:20:13.590Z,16.55
2023-04-07T02:22:41.340Z,18.70
2023-04-07T02:25:30.830Z,18.42
2023-04-07T02:27:59.803Z,18.33
2023-04-07T02:30:28.113Z,18.65
2023-04-07T02:32:55.439Z,19.92
2023-04-07T02:35:22.738Z,18.85
2023-04-07T02:37:50.625Z,19.33
2023-04-07T02:40:17.712Z,18.95
2023-04-07T02:42:44.840Z,18.70
2023-04-07T02:45:12.091Z,19.38
2023-04-07T02:47:40.004Z,19.85
2023-04-07T02:50:07.739Z,19.67
2023-04-07T02:52:35.004Z,20.63
2023-04-07T02:55:01.962Z,19.45
2023-04-07T02:57:28.901Z,18.83
2023-04-07T02:59:58.037Z,22.23
2023-04-07T03:02:25.437Z,19.83
2023-04-07T03:04:53.316Z,20.10
2023-04-07T03:07:20.509Z,19.80
2023-04-07T03:09:47.460Z,18.90
2023-04-07T03:12:14.470Z,20.60
2023-04-07T03:14:41.397Z,20.60
2023-04-07T03:17:08.576Z,20.08
2023-04-07T03:19:35.483Z,20.33
2023-04-07T03:22:02.467Z,21.05
2023-04-07T03:24:29.440Z,20.27
2023-04-07T03:26:56.347Z,20.73
2023-04-07T03:29:23.301Z,35.95
2023-04-07T03:31:50.310Z,19.45
2023-04-07T03:34:17.212Z,18.10
2023-04-07T03:36:44.148Z,17.85
2023-04-07T03:39:11.078Z,18.27
2023-04-07T03:41:38.031Z,18.27
2023-04-07T03:44:05.297Z,18.17
2023-04-07T03:46:32.240Z,18.17
2023-04-07T03:48:59.109Z,17.80
2023-04-07T03:51:27.840Z,18.17
2023-04-07T03:53:54.939Z,18.50
2023-04-07T03:56:22.510Z,18.80
2023-04-07T03:58:49.646Z,17.30
2023-04-07T04:01:17.130Z,20.02
2023-04-07T04:03:44.240Z,17.40
2023-04-07T04:06:11.374Z,17.17
2023-04-07T04:08:38.267Z,17.25
2023-04-07T04:11:05.416Z,17.23
2023-04-07T04:13:32.381Z,18.45
2023-04-07T04:15:59.399Z,18.25
2023-04-07T04:18:26.315Z,19.10
2023-04-07T04:20:53.205Z,17.92
2023-04-07T04:23:20.150Z,17.08
2023-04-07T04:25:47.108Z,16.73
2023-04-07T04:28:14.039Z,17.35
2023-04-07T04:30:41.175Z,16.88
2023-04-07T04:33:08.171Z,16.45
2023-04-07T04:35:35.282Z,17.17
2023-04-07T04:38:02.145Z,17.05
2023-04-07T04:40:29.023Z,17.05
2023-04-07T04:42:56.181Z,17.40
2023-04-07T04:45:23.110Z,16.95
2023-04-07T04:47:50.013Z,17.48
2023-04-07T04:50:17.060Z,18.25
2023-04-07T04:52:46.893Z,16.75
2023-04-07T04:55:14.575Z,18.95
2023-04-07T04:57:44.243Z,16.33
2023-04-07T05:00:11.863Z,16.20
2023-04-07T05:02:40.073Z,16.92
2023-04-07T05:05:08.945Z,18.98
2023-04-07T05:07:35.994Z,20.42
2023-04-07T05:10:03.005Z,19.83
2023-04-07T05:12:29.858Z,18.45
2023-04-07T05:14:56.714Z,20.30
2023-04-07T05:17:23.721Z,18.65
2023-04-07T05:19:50.962Z,20.35
2023-04-07T05:22:21.490Z,18.13
2023-04-07T05:24:48.447Z,18.00
2023-04-07T05:27:15.458Z,15.60
2023-04-07T05:29:42.327Z,17.42
2023-04-07T05:32:09.323Z,17.20
2023-04-07T05:34:36.611Z,16.70
2023-04-07T05:37:03.558Z,16.27
2023-04-07T05:39:30.776Z,16.23
2023-04-07T05:41:58.142Z,17.33
2023-04-07T05:44:25.019Z,17.80
2023-04-07T05:46:51.875Z,17.23
2023-04-07T05:49:20.036Z,19.42
2023-04-07T05:51:49.175Z,20.10
2023-04-07T05:54:16.640Z,19.38
2023-04-07T05:56:43.553Z,17.42
2023-04-07T05:59:10.659Z,15.07
2023-04-07T06:01:37.592Z,16.35
2023-04-07T06:04:04.619Z,16.95
2023-04-07T06:06:31.639Z,14.68
2023-04-07T06:08:58.584Z,13.90
2023-04-07T06:11:27.586Z,13.90
2023-04-07T06:13:54.513Z,15.63
2023-04-07T06:16:21.455Z,15.30
2023-04-07T06:18:48.393Z,14.93
2023-04-07T06:21:15.765Z,15.70
2023-04-07T06:23:42.666Z,16.55
2023-04-07T06:26:13.139Z,16.00
2023-04-07T06:28:40.519Z,16.55
2023-04-07T06:31:09.253Z,15.55
2023-04-07T06:33:36.280Z,15.00
2023-04-07T06:36:03.286Z,16.55
2023-04-07T06:38:30.428Z,15.02
2023-04-07T06:40:57.392Z,13.82
2023-04-07T06:43:24.321Z,14.50
2023-04-07T06:45:51.327Z,14.68
2023-04-07T06:48:18.296Z,15.13
2023-04-07T06:50:50.545Z,14.80
2023-04-07T06:53:17.617Z,14.73
2023-04-07T06:55:44.594Z,15.30
2023-04-07T06:58:11.731Z,15.80
2023-04-07T07:00:38.731Z,15.50
2023-04-07T07:03:05.928Z,16.15
2023-04-07T07:05:34.223Z,15.77
2023-04-07T07:08:01.155Z,16.30
2023-04-07T07:10:28.342Z,16.17
2023-04-07T07:12:55.225Z,16.58
2023-04-07T07:15:22.444Z,18.13
2023-04-07T07:17:49.427Z,17.00
2023-04-07T07:20:16.953Z,18.70
2023-04-07T07:22:43.829Z,18.45
2023-04-07T07:25:11.009Z,19.20
2023-04-07T07:27:37.903Z,19.13
2023-04-07T07:30:06.033Z,19.08
2023-04-07T07:32:33.096Z,18.05
2023-04-07T07:35:00.029Z,19.10
2023-04-07T07:37:28.022Z,18.40
2023-04-07T07:39:56.214Z,18.05
2023-04-07T07:42:23.127Z,17.83
2023-04-07T07:44:50.062Z,18.35
2023-04-07T07:47:17.160Z,17.00
2023-04-07T07:49:44.118Z,19.52
2023-04-07T07:52:11.197Z,18.73
2023-04-07T07:54:38.085Z,18.20
2023-04-07T07:57:06.131Z,19.25
2023-04-07T07:59:33.801Z,18.55
2023-04-07T08:02:01.013Z,19.13
2023-04-07T08:04:28.024Z,25.83
2023-04-07T08:06:55.150Z,19.88
2023-04-07T08:09:22.380Z,18.00
2023-04-07T08:11:49.527Z,18.17
2023-04-07T08:14:17.222Z,21.38
2023-04-07T08:16:44.989Z,20.83
2023-04-07T08:19:13.687Z,27.23
2023-04-07T08:21:40.698Z,35.03
2023-04-07T08:24:10.063Z,28.92
2023-04-07T08:26:37.096Z,30.20
2023-04-07T08:29:03.987Z,29.25
2023-04-07T08:31:31.007Z,26.95
2023-04-07T08:33:58.888Z,23.73
2023-04-07T08:36:28.022Z,19.83
2023-04-07T08:38:55.221Z,19.95
2023-04-07T08:41:33.124Z,18.80
2023-04-07T08:44:02.842Z,20.33
2023-04-07T08:46:31.042Z,20.23
2023-04-07T08:48:58.388Z,21.88
2023-04-07T08:51:32.278Z,20.98
2023-04-07T08:54:14.756Z,20.75
2023-04-07T08:56:43.268Z,18.92
2023-04-07T08:59:18.246Z,18.70
2023-04-07T09:01:47.368Z,19.08
2023-04-07T09:04:14.934Z,18.63
2023-04-07T09:06:41.946Z,22.02
2023-04-07T09:09:09.303Z,24.58
2023-04-07T09:11:39.984Z,23.02
2023-04-07T09:14:07.630Z,22.77
2023-04-07T09:16:35.535Z,22.80
2023-04-07T09:19:02.777Z,24.25
2023-04-07T09:21:52.123Z,24.23
2023-04-07T09:24:29.112Z,25.15
2023-04-07T09:27:17.849Z,23.38
2023-04-07T09:29:47.569Z,24.50
2023-04-07T09:32:41.552Z,23.92
2023-04-07T09:35:09.519Z,22.80
2023-04-07T09:37:37.325Z,22.15
2023-04-07T09:40:04.992Z,24.30
2023-04-07T09:42:36.012Z,24.42
2023-04-07T09:45:03.712Z,23.67
2023-04-07T09:47:32.981Z,25.65
2023-04-07T09:50:06.533Z,26.30
2023-04-07T09:52:54.023Z,26.48
2023-04-07T09:55:24.377Z,25.20
2023-04-07T09:57:52.404Z,31.23
2023-04-07T10:00:19.456Z,26.88
2023-04-07T10:02:48.024Z,26.17
2023-04-07T10:05:15.796Z,27.67
2023-04-07T10:07:44.252Z,27.98
2023-04-07T10:10:11.824Z,28.52
2023-04-07T10:12:39.373Z,24.25
2023-04-07T10:15:07.483Z,23.77
2023-04-07T10:17:37.678Z,25.25
2023-04-07T10:20:09.639Z,24.48
2023-04-07T10:22:38.948Z,25.35
2023-04-07T10:25:13.924Z,24.90
2023-04-07T10:27:51.700Z,43.65
2023-04-07T10:30:26.101Z,25.70
2023-04-07T10:32:54.774Z,26.02
2023-04-07T10:35:23.090Z,25.55
2023-04-07T10:38:08.612Z,27.10
2023-04-07T10:40:37.698Z,26.05
2023-04-07T10:43:09.605Z,25.63
2023-04-07T10:45:49.045Z,25.10
2023-04-07T10:48:20.687Z,25.35
2023-04-07T10:51:11.240Z,29.05
2023-04-07T10:53:38.449Z,25.80
2023-04-07T10:56:05.888Z,24.60
2023-04-07T10:58:33.895Z,23.65
2023-04-07T11:01:04.087Z,24.10
2023-04-07T11:03:40.899Z,23.70
2023-04-07T11:06:14.826Z,23.42
2023-04-07T11:08:49.545Z,22.77
2023-04-07T11:11:35.780Z,22.92
2023-04-07T11:14:02.674Z,23.33
2023-04-07T11:16:42.404Z,23.42
2023-04-07T11:19:09.494Z,23.55
2023-04-07T11:21:36.808Z,23.50
2023-04-07T11:24:04.174Z,23.17
2023-04-07T11:26:38.108Z,25.92
2023-04-07T11:29:05.324Z,22.83
2023-04-07T11:31:32.634Z,21.05
2023-04-07T11:34:03.532Z,22.15
2023-04-07T11:36:41.672Z,20.25
2023-04-07T11:39:22.196Z,20.80
2023-04-07T11:41:51.312Z,21.63
2023-04-07T11:44:18.433Z,21.60
2023-04-07T11:47:00.393Z,21.70
2023-04-07T11:49:28.600Z,22.17
2023-04-07T11:52:13.993Z,21.35
2023-04-07T11:54:41.319Z,20.52
2023-04-07T11:57:14.432Z,21.27
2023-04-07T11:59:42.033Z,22.02
2023-04-07T12:02:09.614Z,19.85
2023-04-07T12:04:40.198Z,18.27
2023-04-07T12:07:10.893Z,18.73
2023-04-07T12:09:38.920Z,18.67
2023-04-07T12:12:10.388Z,18.50
2023-04-07T12:14:37.595Z,17.95
2023-04-07T12:17:04.715Z,17.80
2023-04-07T12:19:34.887Z,16.55
2023-04-07T12:22:01.817Z,17.85
2023-04-07T12:24:28.682Z,17.20
2023-04-07T12:26:56.193Z,15.43
2023-04-07T12:29:23.166Z,17.88
2023-04-07T12:31:51.305Z,16.20
2023-04-07T12:34:20.914Z,14.52
2023-04-07T12:36:48.375Z,14.98
2023-04-07T12:39:16.768Z,14.98
2023-04-07T12:41:45.717Z,15.50
2023-04-07T12:44:12.691Z,14.95
2023-04-07T12:46:39.639Z,15.85
2023-04-07T12:49:06.645Z,21.30
2023-04-07T12:51:33.707Z,18.88
2023-04-07T12:54:01.523Z,18.30
2023-04-07T12:56:28.769Z,19.35
2023-04-07T12:58:55.695Z,15.93
2023-04-07T13:01:22.787Z,16.58
2023-04-07T13:03:49.950Z,15.80
2023-04-07T13:06:17.636Z,20.15
2023-04-07T13:08:44.587Z,14.65
2023-04-07T13:11:11.670Z,13.63
2023-04-07T13:13:38.570Z,12.93
2023-04-07T13:16:05.715Z,13.10
2023-04-07T13:18:32.622Z,14.95
2023-04-07T13:21:33.782Z,14.73
2023-04-07T13:23:46.597Z,12.43
2023-04-07T13:26:13.588Z,13.63
2023-04-07T13:28:41.405Z,12.98
2023-04-07T13:31:08.459Z,12.20
2023-04-07T13:33:35.468Z,13.10
2023-04-07T13:36:02.468Z,13.57
2023-04-07T13:38:29.374Z,13.13
2023-04-07T13:40:56.292Z,12.55
2023-04-07T13:43:23.257Z,12.18
2023-04-07T13:45:50.727Z,11.82
2023-04-07T13:48:17.754Z,12.65
2023-04-07T13:50:44.660Z,11.60
2023-04-07T13:53:11.557Z,12.85
2023-04-07T13:55:39.457Z,12.70
2023-04-07T13:58:06.502Z,13.18
2023-04-07T14:00:35.762Z,12.50
2023-04-07T14:03:02.864Z,11.77
2023-04-07T14:05:30.034Z,12.90
2023-04-07T14:07:56.958Z,14.20
2023-04-07T14:10:23.930Z,12.57
2023-04-07T14:12:50.842Z,11.80
2023-04-07T14:15:18.465Z,12.10
2023-04-07T14:17:45.491Z,19.48
2023-04-07T14:20:12.509Z,16.05
2023-04-07T14:22:39.382Z,14.88
2023-04-07T14:25:07.030Z,13.60
2023-04-07T14:27:33.994Z,12.32
2023-04-07T14:30:01.253Z,13.25
2023-04-07T14:32:32.901Z,19.77
2023-04-07T14:34:59.852Z,12.50
2023-04-07T14:37:28.640Z,12.50
2023-04-07T14:42:26.141Z,11.75
2023-04-07T14:44:53.208Z,12.00
2023-04-07T14:47:20.275Z,12.75
2023-04-07T14:49:47.584Z,12.13
2023-04-07T14:52:14.648Z,12.77
2023-04-07T14:54:41.604Z,12.77
2023-04-07T14:57:08.603Z,13.20
2023-04-07T14:59:35.535Z,16.98
2023-04-07T15:02:02.595Z,13.73
2023-04-07T15:04:29.697Z,14.00
2023-04-07T15:06:56.677Z,15.55
2023-04-07T15:09:23.567Z,20.27
2023-04-07T15:11:50.689Z,15.90
2023-04-07T15:14:17.564Z,14.00
2023-04-07T15:16:44.527Z,14.93
2023-04-07T15:19:11.437Z,17.30
2023-04-07T15:21:38.319Z,17.15
2023-04-07T15:24:05.349Z,14.20
2023-04-07T15:26:32.250Z,13.75
2023-04-07T15:28:59.186Z,15.90
2023-04-07T15:31:27.919Z,15.13
2023-04-07T15:33:54.886Z,14.85
2023-04-07T15:36:21.749Z,14.20
2023-04-07T15:38:48.707Z,14.40
2023-04-07T15:41:16.930Z,14.82
2023-04-07T15:43:43.944Z,14.23
2023-04-07T15:46:11.056Z,15.68
2023-04-07T15:48:37.944Z,15.50
2023-04-07T15:51:05.006Z,15.40
2023-04-07T15:53:31.953Z,16.83
2023-04-07T15:55:58.914Z,16.98
2023-04-07T15:58:25.883Z,15.38
2023-04-07T16:00:53.048Z,15.88
2023-04-07T16:03:20.309Z,16.55
2023-04-07T16:05:47.580Z,15.35
2023-04-07T16:08:14.578Z,15.57
2023-04-07T16:10:41.625Z,15.80
2023-04-07T16:13:09.151Z,15.60
2023-04-07T16:15:40.564Z,16.27
2023-04-07T16:18:11.502Z,16.90
2023-04-07T16:20:38.650Z,15.23
2023-04-07T16:23:05.643Z,14.50
2023-04-07T16:25:32.597Z,15.07
2023-04-07T16:27:59.539Z,14.88
2023-04-07T16:30:26.570Z,15.07
2023-04-07T16:32:53.508Z,15.75
2023-04-07T16:35:20.523Z,15.68
2023-04-07T16:37:47.636Z,18.92
2023-04-07T16:40:14.613Z,19.73
2023-04-07T16:42:41.517Z,16.83
2023-04-07T16:45:08.944Z,18.10
2023-04-07T16:47:37.523Z,16.58
2023-04-07T16:50:05.293Z,17.38
2023-04-07T16:52:32.505Z,16.80
2023-04-07T16:55:00.976Z,17.50
2023-04-07T16:57:28.201Z,19.55
2023-04-07T16:59:55.221Z,20.88
2023-04-07T17:02:22.470Z,20.77
2023-04-07T17:04:49.786Z,19.58
2023-04-07T17:07:16.819Z,19.33
2023-04-07T17:09:43.679Z,19.17
2023-04-07T17:12:10.672Z,20.30
2023-04-07T17:14:37.610Z,19.80
2023-04-07T17:17:04.553Z,18.80
2023-04-07T17:19:31.500Z,18.33
2023-04-07T17:21:58.358Z,18.70
2023-04-07T17:24:25.308Z,20.65
2023-04-07T17:26:52.198Z,19.88
2023-04-07T17:29:20.964Z,19.25
2023-04-07T17:31:49.792Z,19.60
2023-04-07T17:34:17.164Z,18.92
2023-04-07T17:36:44.127Z,20.95
2023-04-07T17:39:11.173Z,19.98
2023-04-07T17:41:38.588Z,18.48
2023-04-07T17:44:05.836Z,20.38
2023-04-07T17:46:33.009Z,19.30
2023-04-07T17:49:00.250Z,18.70
2023-04-07T17:51:27.828Z,16.33
2023-04-07T17:53:55.145Z,15.65
2023-04-07T17:56:22.256Z,16.65
2023-04-07T17:58:49.392Z,17.10
2023-04-07T18:01:17.013Z,17.05
2023-04-07T18:03:44.681Z,19.67
2023-04-07T18:06:17.206Z,22.08
2023-04-07T18:08:48.224Z,20.67
2023-04-07T18:11:16.881Z,22.23
2023-04-07T18:13:43.899Z,18.05
2023-04-07T18:16:17.307Z,21.45
2023-04-07T18:18:46.464Z,18.30
2023-04-07T18:21:13.382Z,18.63
2023-04-07T18:23:40.332Z,19.20
2023-04-07T18:26:07.265Z,16.20
2023-04-07T18:28:35.383Z,15.00
2023-04-07T18:31:07.686Z,18.20
2023-04-07T18:33:36.508Z,14.95
2023-04-07T18:36:07.385Z,15.30
2023-04-07T18:38:38.230Z,15.07
2023-04-07T18:41:07.701Z,16.95
2023-04-07T18:43:35.095Z,17.00
2023-04-07T18:46:02.066Z,16.90
2023-04-07T18:48:29.104Z,17.70
2023-04-07T18:50:57.032Z,18.65
2023-04-07T18:53:27.850Z,24.52
2023-04-07T18:55:54.751Z,19.58
2023-04-07T18:58:21.941Z,20.42
2023-04-07T19:00:50.146Z,19.75
2023-04-07T19:03:17.543Z,21.48
2023-04-07T19:05:47.560Z,19.00
2023-04-07T19:08:16.303Z,18.52
2023-04-07T19:10:43.771Z,19.42
2023-04-07T19:13:11.224Z,19.15
2023-04-07T19:15:39.430Z,24.60
2023-04-07T19:18:08.360Z,24.00
2023-04-07T19:20:35.419Z,21.73
2023-04-07T19:23:02.628Z,20.08
2023-04-07T19:25:31.150Z,19.48
2023-04-07T19:27:59.464Z,29.55
2023-04-07T19:30:27.246Z,28.20
2023-04-07T19:32:54.216Z,34.38
2023-04-07T19:35:24.308Z,49.58
2023-04-07T19:37:52.608Z,56.72
2023-04-07T19:40:19.936Z,50.03
2023-04-07T19:42:47.115Z,37.17
2023-04-07T19:45:14.018Z,44.58
2023-04-07T19:47:44.563Z,42.03
2023-04-07T19:50:11.892Z,30.98
2023-04-07T19:52:39.317Z,28.80
2023-04-07T19:55:07.898Z,26.30
2023-04-07T19:57:35.992Z,27.50
2023-04-07T20:00:06.952Z,30.95
2023-04-07T20:02:34.046Z,34.33
2023-04-07T20:05:01.042Z,31.27
2023-04-07T20:07:27.969Z,30.05
2023-04-07T20:09:55.100Z,26.15
2023-04-07T20:12:22.005Z,25.90
2023-04-07T20:14:49.098Z,27.13
2023-04-07T20:17:16.133Z,25.88
2023-04-07T20:19:44.216Z,25.15
2023-04-07T20:22:11.505Z,27.50
2023-04-07T20:24:39.363Z,31.50
2023-04-07T20:27:06.511Z,39.75
2023-04-07T20:29:33.413Z,26.70
2023-04-07T20:32:00.395Z,23.75
2023-04-07T20:34:27.745Z,20.88
2023-04-07T20:36:55.836Z,22.20
2023-04-07T20:39:22.856Z,20.13
2023-04-07T20:41:49.780Z,20.52
2023-04-07T20:44:17.070Z,20.58
2023-04-07T20:46:46.514Z,21.98
2023-04-07T20:49:13.787Z,20.65
2023-04-07T20:51:42.277Z,19.95
2023-04-07T20:54:09.209Z,37.35
2023-04-07T20:56:36.802Z,28.60
2023-04-07T20:59:03.868Z,26.30
2023-04-07T21:01:30.916Z,22.98
2023-04-07T21:03:59.750Z,22.15
2023-04-07T21:06:26.747Z,21.15
2023-04-07T21:08:54.355Z,20.52
2023-04-07T21:11:21.769Z,20.35
2023-04-07T21:13:49.394Z,21.83
2023-04-07T21:16:17.099Z,19.45
2023-04-07T21:18:44.392Z,20.40
2023-04-07T21:21:11.304Z,19.95
2023-04-07T21:23:38.263Z,21.15
2023-04-07T21:26:05.326Z,19.83
2023-04-07T21:28:32.375Z,21.15
2023-04-07T21:30:59.587Z,19.75
2023-04-07T21:33:26.623Z,19.80
2023-04-07T21:35:55.159Z,18.70
2023-04-07T21:38:22.255Z,18.20
2023-04-07T21:40:49.258Z,17.90
2023-04-07T21:43:16.170Z,18.30
2023-04-07T21:45:43.115Z,18.70
2023-04-07T21:48:10.135Z,19.48
2023-04-07T21:50:38.032Z,17.92
2023-04-07T21:53:05.208Z,27.55
2023-04-07T21:55:32.105Z,26.92
2023-04-07T21:57:59.111Z,23.75
2023-04-07T22:00:26.123Z,23.25
2023-04-07T22:02:53.333Z,20.60
2023-04-07T22:05:21.140Z,22.55
2023-04-07T22:07:48.578Z,27.25
2023-04-07T22:10:15.819Z,26.13
2023-04-07T22:12:42.804Z,26.25
2023-04-07T22:15:11.635Z,27.15
2023-04-07T22:17:39.983Z,22.80
2023-04-07T22:20:12.690Z,22.85
2023-04-07T22:22:40.498Z,21.23
2023-04-07T22:25:07.946Z,24.13
2023-04-07T22:27:35.452Z,19.13
2023-04-07T22:30:04.934Z,17.15
2023-04-07T22:32:31.973Z,16.60
2023-04-07T22:34:58.857Z,18.10
2023-04-07T22:37:25.885Z,17.52
2023-04-07T22:39:52.877Z,18.63
2023-04-07T22:42:19.894Z,20.50
2023-04-07T22:44:46.904Z,21.58
2023-04-07T22:47:13.787Z,21.08
2023-04-07T22:49:40.862Z,20.25
2023-04-07T22:52:07.894Z,19.17
2023-04-07T22:54:34.875Z,18.48
2023-04-07T22:57:02.414Z,18.63
2023-04-07T22:59:29.422Z,19.17
2023-04-07T23:01:57.831Z,18.75
2023-04-07T23:04:25.158Z,17.40
2023-04-07T23:06:52.069Z,20.23
2023-04-07T23:09:19.321Z,20.17
2023-04-07T23:11:47.337Z,19.48
2023-04-07T23:14:14.891Z,18.15
2023-04-07T23:16:41.789Z,16.92
2023-04-07T23:19:11.839Z,16.88
2023-04-07T23:21:39.710Z,17.10
2023-04-07T23:24:06.695Z,17.50
2023-04-07T23:26:33.582Z,17.50
2023-04-07T23:29:00.748Z,17.45
2023-04-07T23:31:28.230Z,17.25
2023-04-07T23:33:55.404Z,19.80
2023-04-07T23:36:22.582Z,18.00
2023-04-07T23:38:49.643Z,17.58
2023-04-07T23:41:16.720Z,17.63
2023-04-07T23:43:43.799Z,17.90
2023-04-07T23:46:10.684Z,17.40
2023-04-07T23:48:37.564Z,18.23
2023-04-07T23:51:04.720Z,19.48
2023-04-07T23:53:31.694Z,19.92
2023-04-07T23:55:58.611Z,19.42
2023-04-07T23:58:25.597Z,20.38
